Time;durP1;ratioP1;P1;durP2;ratioP2;P2;SDS_P1;SDS_P2;PMS_P1;PMS_P2;Temp;Humidity;BMP_temperature;BMP_pressure;BME280_temperature;BME280_humidity;BME280_pressure;Samples;Min_cycle;Max_cycle;Signal;HPM_P1;HPM_P2
2022/04/24 00:00:11;;;;;;;;;15.00;14.50;;;;;16.66;49.49;99341.66;5076133;28;45418;-65
2022/04/24 00:02:36;;;;;;;;;14.00;14.00;;;;;17.00;50.06;99392.88;5060056;28;45169;-65
2022/04/24 00:05:02;;;;;;;;;14.75;12.25;;;;;16.99;49.72;99377.69;5050025;28;45342;-65
2022/04/24 00:07:29;;;;;;;;;14.50;14.50;;;;;16.80;49.58;99345.09;5058272;28;47243;-65
2022/04/24 00:09:55;;;;;;;;;15.75;14.50;;;;;17.11;49.50;99402.81;5060211;28;45606;-65
2022/04/24 00:12:20;;;;;;;;;12.00;11.25;;;;;17.14;49.65;99399.00;5059809;28;45352;-65
2022/04/24 00:14:47;;;;;;;;;16.25;14.75;;;;;16.95;49.42;99370.81;5059470;28;45413;-65
2022/04/24 00:17:15;;;;;;;;;17.25;15.00;;;;;17.11;49.71;99392.03;5061517;28;48573;-65
2022/04/24 00:19:41;;;;;;;;;13.00;11.00;;;;;16.90;49.51;99364.97;5058832;28;45627;-65
2022/04/24 00:22:06;;;;;;;;;14.00;14.00;;;;;17.06;49.79;99394.25;5057065;28;45292;-65
2022/04/24 00:24:32;;;;;;;;;18.25;16.25;;;;;17.12;49.55;99400.97;5060199;28;45314;-65
2022/04/24 00:26:58;;;;;;;;;16.25;14.75;;;;;16.93;49.57;99380.88;5059413;28;45294;-65
2022/04/24 00:29:24;;;;;;;;;16.50;15.75;;;;;16.94;49.52;99393.41;5072346;28;46208;-65
2022/04/24 00:31:49;;;;;;;;;16.75;15.75;;;;;16.77;49.69;99366.88;5058859;28;45484;-65
2022/04/24 00:34:15;;;;;;;;;16.25;16.00;;;;;16.72;49.48;99361.84;5059972;28;45407;-65
2022/04/24 00:36:40;;;;;;;;;11.50;11.50;;;;;16.85;49.87;99386.03;5059122;28;46631;-65
2022/04/24 00:39:06;;;;;;;;;13.25;13.25;;;;;16.92;49.92;99389.09;5059655;28;45323;-65
2022/04/24 00:41:32;;;;;;;;;16.25;15.00;;;;;16.83;49.87;99371.78;5058598;28;45327;-65
2022/04/24 00:43:57;;;;;;;;;15.25;15.25;;;;;16.93;49.91;99380.88;5059950;28;45493;-65
2022/04/24 00:46:37;;;;;;;;;17.75;16.75;;;;;16.97;49.53;99390.47;5059422;28;45823;-65
2022/04/24 00:49:04;;;;;;;;;19.50;15.25;;;;;16.98;49.87;99388.59;5058292;28;45367;-65
2022/04/24 00:51:29;;;;;;;;;12.75;11.75;;;;;16.86;49.75;99363.50;5071898;28;45505;-65
2022/04/24 00:53:55;;;;;;;;;11.25;11.25;;;;;16.85;50.22;99364.47;5052058;28;45633;-65
2022/04/24 00:56:23;;;;;;;;;18.00;16.75;;;;;17.07;50.13;99395.09;5059424;28;45510;-65
2022/04/24 00:58:49;;;;;;;;;15.75;15.50;;;;;17.00;49.89;99390.19;5064200;27;45314;-65
2022/04/24 01:01:15;;;;;;;;;18.00;16.75;;;;;17.03;49.78;99394.47;5059777;28;45331;-65
2022/04/24 01:03:40;;;;;;;;;17.25;17.25;;;;;16.96;50.25;99386.03;5058217;28;45446;-65
2022/04/24 01:06:06;;;;;;;;;15.75;15.75;;;;;16.97;50.07;99389.56;5044037;28;47200;-65
2022/04/24 01:08:34;;;;;;;;;17.00;16.25;;;;;17.08;50.11;99404.91;5057750;28;45457;-65
2022/04/24 01:11:00;;;;;;;;;16.75;16.25;;;;;16.96;49.76;99394.13;5059439;28;45307;-65
2022/04/24 01:13:25;;;;;;;;;20.25;19.00;;;;;16.76;50.17;99352.56;5071790;28;45461;-65
2022/04/24 01:15:51;;;;;;;;;19.00;17.00;;;;;17.09;49.82;99412.88;5057116;28;47132;-65
2022/04/24 01:18:17;;;;;;;;;21.50;17.50;;;;;17.07;50.10;99413.97;5057911;28;45391;-65
2022/04/24 01:20:43;;;;;;;;;16.00;15.00;;;;;16.94;49.65;99398.78;5057756;28;45341;-65
2022/04/24 01:23:08;;;;;;;;;16.75;16.00;;;;;17.08;49.76;99410.28;5057905;28;45582;-65
2022/04/24 01:25:34;;;;;;;;;19.00;18.25;;;;;17.04;49.87;99407.84;5060310;28;48059;-65
2022/04/24 01:27:59;;;;;;;;;19.00;15.00;;;;;16.98;49.73;99413.72;5060920;28;46770;-65
2022/04/24 01:30:25;;;;;;;;;16.50;16.25;;;;;16.84;49.92;99406.75;5061370;28;45211;-65
2022/04/24 01:32:50;;;;;;;;;19.25;16.75;;;;;16.81;50.20;99412.34;5095464;27;45498;-65
2022/04/24 01:35:15;;;;;;;;;18.75;17.75;;;;;16.61;49.57;99386.13;5062409;28;46278;-65
2022/04/24 01:37:44;;;;;;;;;22.00;19.75;;;;;16.63;50.03;99398.47;5061987;28;45395;-65
2022/04/24 01:40:10;;;;;;;;;18.00;17.00;;;;;16.61;50.29;99391.53;5045049;28;45425;-65
2022/04/24 01:42:38;;;;;;;;;19.75;16.25;;;;;16.85;50.32;99432.69;5056064;28;45244;-65
2022/04/24 01:45:05;;;;;;;;;18.50;16.50;;;;;16.87;50.38;99440.66;5062364;28;46311;-65
2022/04/24 01:47:30;;;;;;;;;19.00;19.00;;;;;16.66;50.00;99408.19;5062362;28;45504;-65
2022/04/24 01:49:55;;;;;;;;;16.75;15.25;;;;;16.83;50.15;99439.16;5062706;28;45218;-65
2022/04/24 01:52:21;;;;;;;;;15.25;14.75;;;;;16.53;50.26;99396.66;5062248;28;45436;-65
2022/04/24 01:54:46;;;;;;;;;14.75;14.75;;;;;16.70;50.30;99425.78;5062365;28;46222;-65
2022/04/24 01:57:12;;;;;;;;;16.25;15.00;;;;;16.67;49.93;99423.34;5062119;28;45254;-65
2022/04/24 01:59:37;;;;;;;;;17.25;16.00;;;;;16.75;50.23;99438.91;5062264;28;45237;-65
2022/04/24 02:02:03;;;;;;;;;14.25;14.00;;;;;16.75;50.15;99450.53;5062450;28;45543;-65
2022/04/24 02:04:28;;;;;;;;;18.25;17.75;;;;;16.58;50.20;99424.09;5056955;28;45494;-65
2022/04/24 02:06:53;;;;;;;;;19.00;17.50;;;;;16.59;50.16;99436.56;5048991;28;45341;-65
2022/04/24 02:09:19;;;;;;;;;17.75;15.75;;;;;16.54;50.17;99441.44;5060442;28;45436;-65
2022/04/24 02:11:44;;;;;;;;;15.00;15.00;;;;;16.36;50.07;99414.97;5062181;28;46203;-65
2022/04/24 02:14:10;;;;;;;;;15.00;14.25;;;;;16.34;50.19;99430.41;5061978;28;45395;-65
2022/04/24 02:16:35;;;;;;;;;17.00;17.00;;;;;16.23;50.29;99417.75;5061609;28;45346;-65
2022/04/24 02:19:01;;;;;;;;;18.25;17.25;;;;;16.23;49.94;99406.97;5062059;28;45956;-65
2022/04/24 02:21:28;;;;;;;;;18.75;17.75;;;;;16.33;50.13;99436.75;5077125;28;45344;-65
2022/04/24 02:23:54;;;;;;;;;19.75;18.75;;;;;16.49;50.19;99460.69;5059626;28;47345;-65
2022/04/24 02:26:19;;;;;;;;;17.50;17.50;;;;;16.19;50.06;99413.59;5061948;28;45150;-65
2022/04/24 02:28:45;;;;;;;;;17.00;17.00;;;;;16.46;50.30;99455.53;5062000;28;45192;-65
2022/04/24 02:31:10;;;;;;;;;16.50;16.50;;;;;16.49;50.25;99458.84;5060531;28;45427;-65
2022/04/24 02:33:36;;;;;;;;;16.25;15.00;;;;;16.47;49.98;99451.84;5061796;28;45248;-65
2022/04/24 02:36:02;;;;;;;;;16.25;14.75;;;;;16.32;49.96;99431.47;5072836;28;45958;-65
2022/04/24 02:38:27;;;;;;;;;14.00;11.75;;;;;16.43;50.00;99453.91;5060851;28;45560;-65
2022/04/24 02:40:54;;;;;;;;;16.25;16.25;;;;;16.29;50.42;99427.22;5060505;28;45301;-65
2022/04/24 02:43:19;;;;;;;;;16.00;15.00;;;;;16.39;50.02;99459.66;5060250;28;48318;-65
2022/04/24 02:45:45;;;;;;;;;14.50;13.50;;;;;16.47;50.01;99473.38;5061359;28;45453;-65
2022/04/24 02:48:10;;;;;;;;;15.50;13.75;;;;;16.23;50.04;99436.59;5059980;28;45370;-65
2022/04/24 02:50:36;;;;;;;;;15.00;15.00;;;;;16.38;49.99;99455.25;5061257;28;45449;-65
2022/04/24 02:53:01;;;;;;;;;15.25;13.50;;;;;16.42;50.05;99465.69;5059898;28;48085;-65
2022/04/24 02:55:27;;;;;;;;;15.25;15.25;;;;;16.30;50.21;99451.34;5061645;28;45377;-65
2022/04/24 02:57:53;;;;;;;;;14.25;14.25;;;;;16.32;49.99;99461.09;5046703;28;45395;-65
2022/04/24 03:00:22;;;;;;;;;16.00;15.75;;;;;16.35;49.94;99468.94;5067131;28;45450;-65
2022/04/24 03:02:49;;;;;;;;;14.00;14.00;;;;;16.25;50.02;99458.88;5046952;28;47901;-65
2022/04/24 03:05:24;;;;;;;;;15.00;14.00;;;;;16.33;50.29;99470.91;5049660;28;46223;-65
2022/04/24 03:07:50;;;;;;;;;16.00;14.00;;;;;16.37;50.25;99467.88;5059483;28;45429;-65
2022/04/24 03:10:16;;;;;;;;;14.75;14.75;;;;;16.27;49.96;99461.44;5061351;28;45569;-65
2022/04/24 03:12:43;;;;;;;;;16.50;16.50;;;;;16.21;50.06;99454.72;5060857;28;45751;-65
2022/04/24 03:15:10;;;;;;;;;16.00;13.00;;;;;16.33;49.93;99470.91;5061103;28;45208;-65
2022/04/24 03:17:36;;;;;;;;;14.75;13.50;;;;;16.32;50.16;99470.03;5060579;28;45217;-65
2022/04/24 03:20:03;;;;;;;;;16.75;16.25;;;;;16.39;49.91;99481.19;5059466;28;45532;-65
2022/04/24 03:22:30;;;;;;;;;16.00;16.00;;;;;16.32;49.85;99474.56;5059660;28;45406;-65
2022/04/24 03:24:57;;;;;;;;;14.25;14.25;;;;;16.18;50.15;99460.31;5060876;28;45326;-65
2022/04/24 03:27:22;;;;;;;;;17.75;17.00;;;;;16.39;49.72;99481.19;5085208;27;45371;-65
2022/04/24 03:29:48;;;;;;;;;15.50;15.25;;;;;16.31;49.78;99476.41;5054209;28;45307;-65
2022/04/24 03:32:13;;;;;;;;;14.75;14.00;;;;;16.21;49.97;99464.63;5060902;28;45333;-65
2022/04/24 03:34:39;;;;;;;;;13.25;12.25;;;;;16.30;50.05;99480.94;5060742;28;45436;-65
2022/04/24 03:37:04;;;;;;;;;18.00;17.25;;;;;16.36;49.97;99494.91;5058621;28;45489;-65
2022/04/24 03:39:30;;;;;;;;;15.75;15.25;;;;;16.29;50.04;99481.91;5064494;28;45651;-65
2022/04/24 03:41:56;;;;;;;;;13.00;13.00;;;;;16.38;49.78;99499.19;5060732;28;45588;-65
2022/04/24 03:44:22;;;;;;;;;15.75;14.75;;;;;16.25;49.99;99490.34;5079664;27;45260;-65
2022/04/24 03:46:47;;;;;;;;;16.00;15.00;;;;;16.35;50.11;99512.03;5058950;28;45313;-65
2022/04/24 03:49:13;;;;;;;;;16.50;14.75;;;;;16.10;49.79;99473.50;5059179;28;45333;-65
2022/04/24 03:51:38;;;;;;;;;15.75;15.75;;;;;16.05;50.07;99462.22;5070905;28;47682;-65
2022/04/24 03:54:03;;;;;;;;;13.75;13.75;;;;;16.30;49.96;99513.25;5060277;28;45338;-65
2022/04/24 03:56:31;;;;;;;;;15.25;15.25;;;;;16.15;50.14;99487.47;5059271;28;45362;-65
2022/04/24 03:58:57;;;;;;;;;15.50;14.50;;;;;16.22;50.03;99501.34;5058894;28;45589;-65
2022/04/24 04:01:23;;;;;;;;;14.75;13.75;;;;;16.06;49.92;99477.41;5070418;28;48068;-65
2022/04/24 04:03:50;;;;;;;;;15.50;14.75;;;;;16.14;49.95;99488.47;5057507;28;45437;-65
2022/04/24 04:06:15;;;;;;;;;16.25;15.25;;;;;16.00;49.99;99475.19;5045320;28;45338;-65
2022/04/24 04:08:41;;;;;;;;;21.50;19.00;;;;;15.99;49.98;99474.34;5055329;28;45486;-65
2022/04/24 04:11:07;;;;;;;;;18.25;15.50;;;;;16.16;50.17;99505.34;5058814;28;47031;-65
2022/04/24 04:13:33;;;;;;;;;17.00;16.50;;;;;16.16;50.22;99516.13;5059915;28;45339;-65
2022/04/24 04:16:02;;;;;;;;;16.75;14.75;;;;;15.96;49.99;99488.00;5058298;28;45386;-64
2022/04/24 04:18:27;;;;;;;;;16.25;16.25;;;;;15.92;50.21;99495.47;5075337;28;45694;-65
2022/04/24 04:20:53;;;;;;;;;17.50;17.50;;;;;16.06;50.21;99520.50;5057985;28;48456;-65
2022/04/24 04:23:18;;;;;;;;;18.00;16.25;;;;;15.82;50.10;99483.66;5059862;28;45302;-65
2022/04/24 04:25:44;;;;;;;;;20.00;19.25;;;;;15.98;50.20;99517.50;5058839;28;45361;-65
2022/04/24 04:28:09;;;;;;;;;16.25;16.25;;;;;15.99;50.07;99516.50;5058585;28;45505;-65
2022/04/24 04:30:35;;;;;;;;;19.25;17.75;;;;;15.87;50.05;99499.44;5075368;28;47540;-65
2022/04/24 04:33:00;;;;;;;;;18.00;15.75;;;;;15.52;49.99;99462.56;5058709;28;46002;-65
2022/04/24 04:35:26;;;;;;;;;18.50;17.50;;;;;15.69;49.99;99504.34;5058598;28;45311;-65
2022/04/24 04:37:52;;;;;;;;;18.50;16.25;;;;;15.74;50.15;99512.94;5059596;28;45417;-65
2022/04/24 04:40:23;;;;;;;;;15.00;13.50;;;;;15.81;50.28;99533.06;5071393;28;47859;-65
2022/04/24 04:42:49;;;;;;;;;18.25;16.50;;;;;15.85;50.57;99534.53;5059651;28;45441;-64
2022/04/24 04:45:16;;;;;;;;;17.00;17.00;;;;;15.82;50.38;99528.53;5056437;28;45363;-65
2022/04/24 04:47:42;;;;;;;;;22.50;21.75;;;;;15.77;50.21;99528.91;5059358;28;45374;-65
2022/04/24 04:50:08;;;;;;;;;18.25;16.50;;;;;15.64;50.11;99512.75;5054859;28;47131;-65
2022/04/24 04:52:34;;;;;;;;;21.50;20.25;;;;;15.45;50.20;99486.34;5087056;27;45402;-64
2022/04/24 04:55:00;;;;;;;;;16.25;15.00;;;;;15.60;50.30;99515.75;5058419;28;45438;-65
2022/04/24 04:57:25;;;;;;;;;16.00;15.75;;;;;15.75;50.43;99536.16;5058074;28;45389;-65
2022/04/24 04:59:51;;;;;;;;;20.50;19.25;;;;;15.58;50.62;99513.19;5060925;28;45670;-65
2022/04/24 05:02:17;;;;;;;;;22.50;19.00;;;;;15.43;50.83;99499.03;5063068;28;45310;-65
2022/04/24 05:04:45;;;;;;;;;19.50;16.00;;;;;15.62;50.07;99530.84;5065644;28;45415;-64
2022/04/24 05:07:11;;;;;;;;;23.25;20.75;;;;;15.76;50.41;99555.91;5056500;28;45592;-65
2022/04/24 05:09:37;;;;;;;;;17.00;14.75;;;;;15.68;50.29;99546.50;5063053;28;45327;-65
2022/04/24 05:12:04;;;;;;;;;17.25;16.75;;;;;15.54;50.49;99530.53;5063099;28;45697;-65
2022/04/24 05:14:29;;;;;;;;;20.50;18.25;;;;;15.71;50.54;99558.91;5062937;28;45375;-65
2022/04/24 05:16:55;;;;;;;;;18.75;18.50;;;;;15.59;50.54;99543.66;5063496;28;45515;-65
2022/04/24 05:19:20;;;;;;;;;22.25;19.75;;;;;15.53;50.83;99534.19;5062550;28;45889;-64
2022/04/24 05:21:46;;;;;;;;;16.25;14.50;;;;;15.51;50.42;99536.97;5059523;28;46204;-65
2022/04/24 05:24:11;;;;;;;;;16.25;15.50;;;;;15.52;50.65;99536.03;5061679;28;45494;-65
2022/04/24 05:26:36;;;;;;;;;18.00;15.50;;;;;15.70;50.70;99570.59;5062461;28;45563;-65
2022/04/24 05:29:03;;;;;;;;;15.50;15.50;;;;;15.76;50.46;99575.59;5062796;28;46385;-65
2022/04/24 05:31:30;;;;;;;;;22.00;19.75;;;;;15.74;50.63;99581.03;5078022;28;46032;-65
2022/04/24 05:33:56;;;;;;;;;21.25;18.25;;;;;15.73;50.80;99582.00;5062879;28;45369;-65
2022/04/24 05:36:21;;;;;;;;;19.25;17.75;;;;;15.69;50.83;99590.44;5061604;28;45478;-65
2022/04/24 05:38:46;;;;;;;;;16.75;16.00;;;;;15.74;51.15;99593.66;5063756;28;48494;-65
2022/04/24 05:41:12;;;;;;;;;22.25;21.25;;;;;15.60;51.06;99570.41;5061322;28;45890;-65
2022/04/24 05:43:39;;;;;;;;;21.00;20.00;;;;;15.69;51.11;99587.75;5061212;28;45375;-65
2022/04/24 05:46:05;;;;;;;;;19.00;19.00;;;;;15.79;51.21;99599.59;5060656;28;45453;-65
2022/04/24 05:48:30;;;;;;;;;21.00;18.25;;;;;15.54;51.11;99558.28;5077336;28;48223;-65
2022/04/24 05:50:56;;;;;;;;;19.00;16.50;;;;;15.80;51.38;99598.59;5060819;28;45415;-64
2022/04/24 05:53:22;;;;;;;;;21.25;20.00;;;;;15.57;51.25;99552.69;5062420;28;45810;-64
2022/04/24 05:55:47;;;;;;;;;21.00;21.00;;;;;15.74;51.12;99590.97;5062526;28;45461;-65
2022/04/24 05:58:13;;;;;;;;;18.50;17.00;;;;;15.74;51.38;99599.88;5062095;28;46792;-65
2022/04/24 06:00:38;;;;;;;;;20.00;19.75;;;;;15.52;51.41;99562.91;5071553;28;46387;-64
2022/04/24 06:03:04;;;;;;;;;26.00;23.00;;;;;15.59;51.21;99578.63;5061919;28;45359;-65
2022/04/24 06:05:29;;;;;;;;;23.50;21.25;;;;;15.67;51.38;99600.41;5057688;28;45306;-64
2022/04/24 06:07:55;;;;;;;;;22.50;21.25;;;;;15.53;51.54;99580.75;5061797;28;45245;-65
2022/04/24 06:10:21;;;;;;;;;17.25;17.00;;;;;15.59;51.56;99592.91;5061577;28;45208;-64
2022/04/24 06:12:54;;;;;;;;;25.00;23.50;;;;;15.64;51.52;99603.34;5061459;28;45301;-65
2022/04/24 06:15:21;;;;;;;;;24.50;23.00;;;;;15.71;51.53;99623.47;5061906;28;45219;-64
2022/04/24 06:17:49;;;;;;;;;22.75;21.50;;;;;15.64;51.11;99606.03;5077345;28;47160;-65
2022/04/24 06:20:16;;;;;;;;;23.00;21.25;;;;;15.66;51.18;99599.56;5057010;28;45465;-65
2022/04/24 06:22:52;;;;;;;;;24.75;22.50;;;;;15.60;51.24;99588.38;5055342;28;45387;-65
2022/04/24 06:25:25;;;;;;;;;23.50;21.00;;;;;15.77;51.42;99623.06;5060104;28;45317;-65
2022/04/24 06:27:52;;;;;;;;;22.50;21.50;;;;;15.81;51.21;99623.69;5061615;28;46623;-63
2022/04/24 06:30:25;;;;;;;;;21.50;19.75;;;;;15.84;51.12;99635.09;5062933;28;45331;-64
2022/04/24 06:32:51;;;;;;;;;23.75;22.75;;;;;15.70;50.84;99602.91;5061193;28;45429;-64
2022/04/24 06:35:17;;;;;;;;;24.25;22.50;;;;;15.69;51.02;99606.56;5059489;28;45347;-64
2022/04/24 06:37:47;;;;;;;;;24.75;23.25;;;;;15.56;51.05;99590.44;5065911;28;47325;-64
2022/04/24 06:40:15;;;;;;;;;27.25;26.50;;;;;15.74;50.88;99621.41;5061532;28;45342;-64
2022/04/24 06:42:53;;;;;;;;;22.50;22.25;;;;;15.83;51.06;99641.44;5060315;28;45300;-64
2022/04/24 06:45:25;;;;;;;;;20.00;20.00;;;;;15.43;51.15;99577.00;5059818;28;45877;-65
2022/04/24 06:47:56;;;;;;;;;24.25;22.00;;;;;15.77;50.88;99636.50;5055836;28;48217;-73
2022/04/24 06:50:24;;;;;;;;;28.50;27.50;;;;;15.60;50.63;99612.59;5059780;28;46408;-73
2022/04/24 06:52:57;;;;;;;;;26.25;24.00;;;;;15.78;51.01;99654.34;5050279;28;45430;-70
2022/04/24 06:55:24;;;;;;;;;27.00;24.25;;;;;15.66;50.78;99625.63;5061347;28;45458;-70
2022/04/24 06:57:51;;;;;;;;;27.00;26.75;;;;;15.58;50.99;99620.78;5058655;28;47409;-71
2022/04/24 07:00:17;;;;;;;;;27.50;26.25;;;;;15.66;51.04;99617.56;5061187;28;45573;-71
2022/04/24 07:02:42;;;;;;;;;27.50;26.25;;;;;15.60;50.67;99616.13;5050607;28;45562;-71
2022/04/24 07:05:08;;;;;;;;;29.75;29.25;;;;;15.64;50.51;99611.44;5044344;28;45263;-71
2022/04/24 07:07:34;;;;;;;;;31.75;26.50;;;;;15.76;50.76;99636.63;5044688;28;46361;-71
2022/04/24 07:09:59;;;;;;;;;32.75;30.75;;;;;15.77;50.50;99646.41;5061456;28;45301;-71
2022/04/24 07:12:25;;;;;;;;;29.75;27.75;;;;;15.72;50.53;99634.13;5054762;28;45351;-71
2022/04/24 07:14:50;;;;;;;;;31.75;30.00;;;;;15.77;50.52;99649.97;5066281;28;45227;-71
2022/04/24 07:17:18;;;;;;;;;31.75;28.75;;;;;15.46;50.77;99600.13;5061004;28;46204;-71
2022/04/24 07:19:43;;;;;;;;;33.00;30.50;;;;;15.67;50.49;99619.25;5064515;28;45497;-71
2022/04/24 07:22:09;;;;;;;;;29.50;27.75;;;;;15.69;50.29;99625.41;5054161;28;45441;-71
2022/04/24 07:24:34;;;;;;;;;30.00;28.50;;;;;15.86;50.49;99660.06;5073119;28;45445;-71
2022/04/24 07:27:00;;;;;;;;;36.25;31.75;;;;;15.97;50.39;99664.69;5075871;28;48339;-71
2022/04/24 07:29:25;;;;;;;;;32.75;31.25;;;;;15.92;50.10;99656.94;5055450;28;45302;-71
2022/04/24 07:31:51;;;;;;;;;33.00;31.25;;;;;15.74;50.32;99637.53;5060642;28;45683;-71
2022/04/24 07:34:16;;;;;;;;;30.00;28.50;;;;;15.96;49.97;99672.88;5059036;28;45414;-71
2022/04/24 07:36:42;;;;;;;;;30.50;29.50;;;;;15.82;50.13;99646.91;5060321;28;45452;-71
2022/04/24 07:39:07;;;;;;;;;31.75;27.25;;;;;15.97;50.22;99663.81;5042423;28;45407;-71
2022/04/24 07:41:32;;;;;;;;;33.50;32.00;;;;;15.84;50.29;99643.16;5061011;28;45385;-71
2022/04/24 07:43:58;;;;;;;;;35.50;32.75;;;;;15.93;50.18;99658.63;5064164;28;45374;-72
2022/04/24 07:46:23;;;;;;;;;35.75;31.00;;;;;16.09;50.23;99679.94;5071229;28;47104;-72
2022/04/24 07:48:49;;;;;;;;;37.00;32.50;;;;;15.99;49.90;99661.84;5060571;28;45208;-72
2022/04/24 07:51:14;;;;;;;;;34.25;32.25;;;;;15.94;50.07;99656.81;5060485;28;45419;-71
2022/04/24 07:53:42;;;;;;;;;36.25;31.50;;;;;15.74;49.87;99604.41;5060744;28;45230;-73
2022/04/24 07:56:08;;;;;;;;;38.75;32.75;;;;;16.20;49.98;99684.53;5059024;28;46630;-71
2022/04/24 07:58:40;;;;;;;;;38.25;32.25;;;;;16.00;49.81;99658.19;5056596;27;47094;-72
2022/04/24 08:01:06;;;;;;;;;31.50;30.25;;;;;15.72;50.07;99607.22;5056853;28;45366;-71
2022/04/24 08:03:31;;;;;;;;;29.75;29.50;;;;;16.11;50.17;99666.38;5059877;28;45453;-71
2022/04/24 08:05:57;;;;;;;;;35.50;30.75;;;;;16.03;50.07;99649.91;5046360;28;46099;-71
2022/04/24 08:08:23;;;;;;;;;37.50;33.25;;;;;15.96;49.80;99616.34;5055570;28;45383;-70
2022/04/24 08:10:51;;;;;;;;;34.50;31.50;;;;;16.33;49.77;99668.34;5041080;28;45746;-71
2022/04/24 08:13:18;;;;;;;;;31.25;29.75;;;;;16.08;49.42;99634.28;5051275;28;45481;-71
2022/04/24 08:15:44;;;;;;;;;30.00;26.75;;;;;16.17;49.73;99648.91;5071431;28;47573;-71
2022/04/24 08:18:10;;;;;;;;;39.25;32.50;;;;;16.32;49.55;99671.16;5068516;28;45744;-71
2022/04/24 08:20:37;;;;;;;;;35.25;33.00;;;;;16.52;49.88;99702.84;5054602;28;45535;-72
2022/04/24 08:23:03;;;;;;;;;33.25;29.75;;;;;16.53;49.47;99699.19;5054027;28;45932;-72
2022/04/24 08:25:29;;;;;;;;;43.25;34.75;;;;;16.53;49.86;99692.97;5055004;28;45430;-71
2022/04/24 08:27:56;;;;;;;;;37.25;33.00;;;;;16.42;49.60;99678.44;5060424;28;45797;-71
2022/04/24 08:30:23;;;;;;;;;34.50;30.25;;;;;16.61;49.85;99695.94;5071743;28;45730;-72
2022/04/24 08:32:50;;;;;;;;;36.75;32.25;;;;;16.61;49.58;99695.94;5055911;28;45509;-71
2022/04/24 08:35:19;;;;;;;;;41.50;33.75;;;;;16.65;49.41;99692.88;5077045;27;48162;-72
2022/04/24 08:37:45;;;;;;;;;38.25;33.50;;;;;16.70;49.54;99699.78;5051105;28;45779;-71
2022/04/24 08:40:13;;;;;;;;;35.50;32.50;;;;;16.68;49.57;99702.59;5054524;28;45593;-71
2022/04/24 08:42:40;;;;;;;;;34.50;32.00;;;;;16.73;49.30;99700.41;5054626;28;45991;-71
2022/04/24 08:45:08;;;;;;;;;35.50;32.50;;;;;16.77;49.15;99696.53;5053150;28;45414;-71
2022/04/24 08:47:34;;;;;;;;;35.75;32.25;;;;;16.73;49.00;99681.53;5054197;28;45516;-71
2022/04/24 08:50:00;;;;;;;;;36.25;33.50;;;;;16.78;49.09;99692.00;5048576;28;45948;-71
2022/04/24 08:52:28;;;;;;;;;39.00;33.25;;;;;16.82;49.01;99696.16;5055364;28;45591;-71
2022/04/24 08:54:55;;;;;;;;;40.75;33.00;;;;;16.75;48.92;99686.81;5055327;28;46274;-72
2022/04/24 08:57:26;;;;;;;;;41.25;34.25;;;;;16.74;48.62;99695.88;5054179;28;45383;-72
2022/04/24 08:59:54;;;;;;;;;36.25;32.75;;;;;16.85;48.41;99717.53;5053558;28;45583;-70
2022/04/24 09:02:20;;;;;;;;;41.50;35.50;;;;;16.81;48.80;99702.53;5053049;28;45418;-64
2022/04/24 09:04:46;;;;;;;;;40.75;35.00;;;;;16.91;48.52;99713.53;5047719;28;45392;-63
2022/04/24 09:07:17;;;;;;;;;36.75;33.00;;;;;16.94;48.35;99716.84;5049454;28;45564;-63
2022/04/24 09:09:44;;;;;;;;;34.25;31.00;;;;;16.67;47.91;99666.72;5055307;28;45528;-62
2022/04/24 09:12:12;;;;;;;;;36.25;31.50;;;;;16.99;48.01;99720.06;5053389;28;45751;-63
2022/04/24 09:14:38;;;;;;;;;34.25;31.00;;;;;17.03;47.77;99723.38;5044663;28;47652;-63
2022/04/24 09:17:05;;;;;;;;;31.75;28.50;;;;;16.97;48.24;99716.63;5039303;28;45488;-63
2022/04/24 09:19:32;;;;;;;;;38.00;33.25;;;;;16.81;48.19;99694.47;5046457;28;45844;-63
2022/04/24 09:22:12;;;;;;;;;34.25;31.75;;;;;17.08;48.75;99723.03;5037875;28;45734;-64
2022/04/24 09:25:01;;;;;;;;;42.75;34.00;;;;;17.08;48.23;99721.19;5053901;28;48380;-62
2022/04/24 09:27:32;;;;;;;;;40.75;34.50;;;;;16.97;48.89;99703.16;5042081;28;45545;-62
2022/04/24 09:30:00;;;;;;;;;37.75;33.50;;;;;17.09;48.03;99730.13;5055295;28;45849;-63
2022/04/24 09:32:28;;;;;;;;;39.75;34.00;;;;;17.10;47.85;99732.72;5063345;28;45529;-62
2022/04/24 09:34:53;;;;;;;;;44.25;36.75;;;;;16.98;48.04;99714.78;5049397;28;47789;-63
2022/04/24 09:37:20;;;;;;;;;40.00;35.00;;;;;17.03;48.19;99731.47;5054735;28;45739;-63
2022/04/24 09:39:46;;;;;;;;;34.25;32.25;;;;;16.91;47.93;99713.53;5055194;28;45933;-63
2022/04/24 09:42:14;;;;;;;;;37.75;32.00;;;;;17.09;47.94;99733.72;5053865;28;45782;-62
2022/04/24 09:44:44;;;;;;;;;35.25;32.50;;;;;16.89;47.51;99704.69;5057112;28;46093;-63
2022/04/24 09:47:11;;;;;;;;;35.75;32.25;;;;;16.99;48.02;99721.88;5073706;28;45730;-63
2022/04/24 09:49:39;;;;;;;;;36.75;33.00;;;;;17.02;47.56;99710.84;5059182;28;45731;-63
2022/04/24 09:52:13;;;;;;;;;36.25;32.00;;;;;17.21;47.43;99743.56;5057152;28;45815;-63
2022/04/24 09:54:44;;;;;;;;;36.75;33.00;;;;;17.15;47.98;99733.22;5055818;28;48151;-63
2022/04/24 09:57:13;;;;;;;;;31.00;29.50;;;;;17.06;47.65;99711.47;5055898;28;46032;-68
2022/04/24 09:59:41;;;;;;;;;26.00;25.00;;;;;17.20;46.83;99730.19;5053041;28;45713;-67
2022/04/24 10:02:08;;;;;;;;;30.00;29.75;;;;;17.21;47.20;99729.22;5057461;28;45558;-63
2022/04/24 10:04:35;;;;;;;;;31.25;30.00;;;;;17.19;47.22;99717.66;5057884;28;46370;-63
2022/04/24 10:07:08;;;;;;;;;29.50;28.25;;;;;17.47;46.42;99756.88;5057564;28;45406;-63
2022/04/24 10:09:43;;;;;;;;;30.75;29.75;;;;;17.34;46.52;99727.31;5056350;28;45749;-63
2022/04/24 10:12:11;;;;;;;;;30.75;29.00;;;;;17.50;46.39;99755.78;5058213;28;45535;-64
2022/04/24 10:14:52;;;;;;;;;34.25;32.00;;;;;17.40;46.09;99743.00;5056631;28;48466;-64
2022/04/24 10:17:36;;;;;;;;;34.25;32.25;;;;;17.57;46.71;99759.72;5048942;28;45555;-64
2022/04/24 10:20:35;;;;;;;;;36.25;31.75;;;;;17.60;46.50;99762.19;5055142;28;45596;-64
2022/04/24 10:23:00;;;;;;;;;29.75;29.00;;;;;17.55;46.43;99757.13;5057210;28;45488;-64
2022/04/24 10:25:35;;;;;;;;;36.00;31.25;;;;;17.34;46.22;99726.41;5055624;28;45672;-63
2022/04/24 10:32:09;;;;;;;;;32.50;31.25;;;;;17.70;46.08;99765.88;4951005;28;45556;-65
2022/04/24 10:34:38;;;;;;;;;33.25;29.75;;;;;17.74;46.41;99767.38;4995833;28;45781;-65
2022/04/24 10:37:05;;;;;;;;;31.75;30.00;;;;;17.71;45.99;99767.63;5048565;28;48107;-66
2022/04/24 10:39:37;;;;;;;;;34.25;33.00;;;;;17.84;46.53;99788.25;5057400;28;45548;-66
2022/04/24 10:42:13;;;;;;;;;36.25;30.50;;;;;17.65;46.45;99751.03;5073471;28;45571;-67
2022/04/24 10:45:01;;;;;;;;;;;;;;;;;;;;;
2022/04/24 10:47:55;;;;;;;;;39.00;34.25;;;;;17.76;46.69;99768.13;5051122;28;74157;-69
2022/04/24 10:50:22;;;;;;;;;33.50;32.75;;;;;17.91;46.31;99786.84;5079054;27;45755;-69
2022/04/24 10:52:50;;;;;;;;;36.75;34.25;;;;;17.73;46.56;99754.00;5056409;28;46535;-69
2022/04/24 10:55:17;;;;;;;;;35.00;32.25;;;;;17.81;46.49;99764.19;5072739;28;45920;-71
2022/04/24 10:58:02;;;;;;;;;;;;;;;;;;;;;
2022/04/24 11:00:36;;;;;;;;;36.75;32.75;;;;;17.99;46.42;99772.72;5052205;28;71167;-70
2022/04/24 11:03:07;;;;;;;;;35.00;32.00;;;;;18.24;46.79;99807.63;5057632;28;45572;-67
2022/04/24 11:05:37;;;;;;;;;34.25;32.50;;;;;18.09;46.44;99774.59;5056935;28;45602;-68
2022/04/24 11:08:04;;;;;;;;;32.75;31.00;;;;;18.12;46.75;99774.31;5069305;28;48492;-66
2022/04/24 11:10:37;;;;;;;;;35.25;34.00;;;;;18.31;46.45;99800.75;5055167;28;45529;-66
2022/04/24 11:13:02;;;;;;;;;30.25;28.75;;;;;18.38;46.20;99806.53;5056436;28;46451;-66
2022/04/24 11:15:28;;;;;;;;;30.75;27.75;;;;;18.29;45.91;99788.34;5056155;28;45774;-66
2022/04/24 11:17:53;;;;;;;;;28.00;26.75;;;;;18.37;45.88;99793.97;5072177;28;48240;-67
2022/04/24 11:20:19;;;;;;;;;36.00;32.75;;;;;18.55;45.68;99815.13;5056739;28;45471;-68
2022/04/24 11:22:52;;;;;;;;;24.00;22.50;;;;;18.50;45.66;99819.03;5049665;28;45462;-68